sensor_id;sensor_type;location;lat;lon;timestamp;pressure;altitude;pressure_sealevel;temperature;humidity
5146;BME280;2591;48.144;15.152;2023-02-13T00:00:52;78511.34;;;-144.65;100.00
5146;BME280;2591;48.144;15.152;2023-02-13T00:03:21;78517.47;;;-144.65;100.00
5146;BME280;2591;48.144;15.152;2023-02-13T00:05:49;78521.56;;;-144.65;100.00
5146;BME280;2591;48.144;15.152;2023-02-13T00:08:17;78537.88;;;-144.65;100.00
5146;BME280;2591;48.144;15.152;2023-02-13T00:10:46;78537.88;;;-144.65;100.00
5146;BME280;2591;48.144;15.152;2023-02-13T00:13:13;78550.13;;;-144.65;100.00
5146;BME280;2591;48.144;15.152;2023-02-13T00:15:43;78548.06;;;-144.65;100.00
5146;BME280;2591;48.144;15.152;2023-02-13T00:18:10;78541.94;;;-144.65;100.00
5146;BME280;2591;48.144;15.152;2023-02-13T00:20:38;78554.19;;;-144.65;100.00
5146;BME280;2591;48.144;15.152;2023-02-13T00:23:06;78562.34;;;-144.65;100.00
5146;BME280;2591;48.144;15.152;2023-02-13T00:25:34;78572.56;;;-144.65;100.00
5146;BME280;2591;48.144;15.152;2023-02-13T00:28:02;78586.84;;;-144.65;100.00
5146;BME280;2591;48.144;15.152;2023-02-13T00:30:29;78590.91;;;-144.65;100.00
5146;BME280;2591;48.144;15.152;2023-02-13T00:32:58;78611.31;;;-144.65;100.00
5146;BME280;2591;48.144;15.152;2023-02-13T00:35:26;78625.59;;;-144.65;100.00
5146;BME280;2591;48.144;15.152;2023-02-13T00:37:54;78627.66;;;-144.65;100.00
5146;BME280;2591;48.144;15.152;2023-02-13T00:40:22;78652.13;;;-144.65;100.00
5146;BME280;2591;48.144;15.152;2023-02-13T00:42:50;78656.22;;;-144.65;100.00
5146;BME280;2591;48.144;15.152;2023-02-13T00:45:18;78654.16;;;-144.65;100.00
5146;BME280;2591;48.144;15.152;2023-02-13T00:47:45;78648.03;;;-144.65;100.00
5146;BME280;2591;48.144;15.152;2023-02-13T00:50:15;78652.13;;;-144.65;100.00
5146;BME280;2591;48.144;15.152;2023-02-13T00:52:43;78648.03;;;-144.65;100.00
5146;BME280;2591;48.144;15.152;2023-02-13T00:55:10;78648.03;;;-144.65;100.00
5146;BME280;2591;48.144;15.152;2023-02-13T00:57:38;78662.31;;;-144.65;100.00
5146;BME280;2591;48.144;15.152;2023-02-13T01:00:07;78674.56;;;-144.65;100.00
5146;BME280;2591;48.144;15.152;2023-02-13T01:02:35;78680.69;;;-144.65;100.00
5146;BME280;2591;48.144;15.152;2023-02-13T01:05:03;78682.72;;;-144.65;100.00
5146;BME280;2591;48.144;15.152;2023-02-13T01:07:32;78688.84;;;-144.65;100.00
5146;BME280;2591;48.144;15.152;2023-02-13T01:10:00;78705.19;;;-144.65;100.00
5146;BME280;2591;48.144;15.152;2023-02-13T01:12:28;78725.56;;;-144.65;100.00
5146;BME280;2591;48.144;15.152;2023-02-13T01:14:56;78737.81;;;-144.65;100.00
5146;BME280;2591;48.144;15.152;2023-02-13T01:17:23;78737.81;;;-144.65;100.00
5146;BME280;2591;48.144;15.152;2023-02-13T01:19:51;78756.19;;;-144.65;100.00
5146;BME280;2591;48.144;15.152;2023-02-13T01:22:19;78764.34;;;-144.65;100.00
5146;BME280;2591;48.144;15.152;2023-02-13T01:24:48;78766.38;;;-144.65;100.00
5146;BME280;2591;48.144;15.152;2023-02-13T01:27:16;78766.38;;;-144.65;100.00
5146;BME280;2591;48.144;15.152;2023-02-13T01:29:44;78766.38;;;-144.65;100.00
5146;BME280;2591;48.144;15.152;2023-02-13T01:32:12;78770.47;;;-144.65;100.00
5146;BME280;2591;48.144;15.152;2023-02-13T01:34:40;78770.47;;;-144.65;100.00
5146;BME280;2591;48.144;15.152;2023-02-13T01:37:07;78774.53;;;-144.65;100.00
5146;BME280;2591;48.144;15.152;2023-02-13T01:39:35;78770.47;;;-144.65;100.00
5146;BME280;2591;48.144;15.152;2023-02-13T01:42:08;78774.53;;;-144.65;100.00
5146;BME280;2591;48.144;15.152;2023-02-13T01:44:49;78801.06;;;-144.65;100.00
5146;BME280;2591;48.144;15.152;2023-02-13T01:47:23;78811.28;;;-144.65;100.00
5146;BME280;2591;48.144;15.152;2023-02-13T01:50:02;78815.34;;;-144.65;100.00
5146;BME280;2591;48.144;15.152;2023-02-13T01:52:32;78811.28;;;-144.65;100.00
5146;BME280;2591;48.144;15.152;2023-02-13T01:55:03;78807.19;;;-144.65;100.00
5146;BME280;2591;48.144;15.152;2023-02-13T01:57:32;78799.03;;;-144.65;100.00
5146;BME280;2591;48.144;15.152;2023-02-13T02:00:04;78803.13;;;-144.65;100.00
5146;BME280;2591;48.144;15.152;2023-02-13T02:02:36;78794.94;;;-144.65;100.00
5146;BME280;2591;48.144;15.152;2023-02-13T02:05:05;78799.03;;;-144.65;100.00
5146;BME280;2591;48.144;15.152;2023-02-13T02:07:37;78788.84;;;-144.65;100.00
5146;BME280;2591;48.144;15.152;2023-02-13T02:10:09;78782.72;;;-144.65;100.00
5146;BME280;2591;48.144;15.152;2023-02-13T02:12:43;78780.66;;;-144.65;100.00
5146;BME280;2591;48.144;15.152;2023-02-13T02:15:14;78778.63;;;-144.65;100.00
5146;BME280;2591;48.144;15.152;2023-02-13T02:17:42;78770.47;;;-144.65;100.00
5146;BME280;2591;48.144;15.152;2023-02-13T02:20:20;78762.31;;;-144.65;100.00
5146;BME280;2591;48.144;15.152;2023-02-13T02:23:14;78762.31;;;-144.65;100.00
5146;BME280;2591;48.144;15.152;2023-02-13T02:32:21;78760.25;;;-144.65;100.00
5146;BME280;2591;48.144;15.152;2023-02-13T02:34:55;78762.31;;;-144.65;100.00
5146;BME280;2591;48.144;15.152;2023-02-13T02:37:40;78766.38;;;-144.65;100.00
5146;BME280;2591;48.144;15.152;2023-02-13T02:40:19;78784.75;;;-144.65;100.00
5146;BME280;2591;48.144;15.152;2023-02-13T02:42:59;78784.75;;;-144.65;100.00
5146;BME280;2591;48.144;15.152;2023-02-13T02:45:37;78790.88;;;-144.65;100.00
5146;BME280;2591;48.144;15.152;2023-02-13T02:48:11;78778.63;;;-144.65;100.00
5146;BME280;2591;48.144;15.152;2023-02-13T02:51:02;78778.63;;;-144.65;100.00
5146;BME280;2591;48.144;15.152;2023-02-13T02:53:39;78774.53;;;-144.65;100.00
5146;BME280;2591;48.144;15.152;2023-02-13T02:56:14;78784.75;;;-144.65;100.00
5146;BME280;2591;48.144;15.152;2023-02-13T02:58:46;78780.66;;;-144.65;100.00
5146;BME280;2591;48.144;15.152;2023-02-13T03:01:33;78778.63;;;-144.65;100.00
5146;BME280;2591;48.144;15.152;2023-02-13T03:04:24;78782.72;;;-144.65;100.00
5146;BME280;2591;48.144;15.152;2023-02-13T03:07:14;78782.72;;;-144.65;100.00
5146;BME280;2591;48.144;15.152;2023-02-13T03:09:45;78778.63;;;-144.65;100.00
5146;BME280;2591;48.144;15.152;2023-02-13T03:12:37;78778.63;;;-144.65;100.00
5146;BME280;2591;48.144;15.152;2023-02-13T03:15:25;78778.63;;;-144.65;100.00
5146;BME280;2591;48.144;15.152;2023-02-13T03:17:54;78776.59;;;-144.65;100.00
5146;BME280;2591;48.144;15.152;2023-02-13T03:20:45;78774.53;;;-144.65;100.00
5146;BME280;2591;48.144;15.152;2023-02-13T03:23:44;78766.38;;;-144.65;100.00
5146;BME280;2591;48.144;15.152;2023-02-13T03:26:29;78764.34;;;-144.65;100.00
5146;BME280;2591;48.144;15.152;2023-02-13T03:29:19;78766.38;;;-144.65;100.00
5146;BME280;2591;48.144;15.152;2023-02-13T03:32:13;78778.63;;;-144.65;100.00
5146;BME280;2591;48.144;15.152;2023-02-13T03:34:49;78778.63;;;-144.65;100.00
5146;BME280;2591;48.144;15.152;2023-02-13T03:37:39;78782.72;;;-144.65;100.00
5146;BME280;2591;48.144;15.152;2023-02-13T03:40:23;78784.75;;;-144.65;100.00
5146;BME280;2591;48.144;15.152;2023-02-13T03:43:00;78790.88;;;-144.65;100.00
5146;BME280;2591;48.144;15.152;2023-02-13T03:45:32;78799.03;;;-144.65;100.00
5146;BME280;2591;48.144;15.152;2023-02-13T03:48:23;78807.19;;;-144.65;100.00
5146;BME280;2591;48.144;15.152;2023-02-13T03:51:13;78809.22;;;-144.65;100.00
5146;BME280;2591;48.144;15.152;2023-02-13T03:53:45;78811.28;;;-144.65;100.00
5146;BME280;2591;48.144;15.152;2023-02-13T03:56:18;78811.28;;;-144.65;100.00
5146;BME280;2591;48.144;15.152;2023-02-13T03:59:07;78811.28;;;-144.65;100.00
5146;BME280;2591;48.144;15.152;2023-02-13T04:01:50;78807.19;;;-144.65;100.00
5146;BME280;2591;48.144;15.152;2023-02-13T04:04:25;78819.44;;;-144.65;100.00
5146;BME280;2591;48.144;15.152;2023-02-13T04:06:59;78819.44;;;-144.65;100.00
5146;BME280;2591;48.144;15.152;2023-02-13T04:09:31;78819.44;;;-144.65;100.00
5146;BME280;2591;48.144;15.152;2023-02-13T04:12:05;78819.44;;;-144.65;100.00
5146;BME280;2591;48.144;15.152;2023-02-13T04:14:39;78827.59;;;-144.65;100.00
5146;BME280;2591;48.144;15.152;2023-02-13T04:17:13;78819.44;;;-144.65;100.00
5146;BME280;2591;48.144;15.152;2023-02-13T04:19:43;78829.63;;;-144.65;100.00
5146;BME280;2591;48.144;15.152;2023-02-13T04:22:11;78825.56;;;-144.65;100.00
5146;BME280;2591;48.144;15.152;2023-02-13T04:24:40;78825.56;;;-144.65;100.00
5146;BME280;2591;48.144;15.152;2023-02-13T04:27:10;78835.75;;;-144.65;100.00
5146;BME280;2591;48.144;15.152;2023-02-13T04:29:39;78839.84;;;-144.65;100.00
5146;BME280;2591;48.144;15.152;2023-02-13T04:32:08;78839.84;;;-144.65;100.00
5146;BME280;2591;48.144;15.152;2023-02-13T04:34:36;78841.88;;;-144.65;100.00
5146;BME280;2591;48.144;15.152;2023-02-13T04:37:04;78837.81;;;-144.65;100.00
5146;BME280;2591;48.144;15.152;2023-02-13T04:39:32;78839.84;;;-144.65;100.00
5146;BME280;2591;48.144;15.152;2023-02-13T04:42:02;78839.84;;;-144.65;100.00
5146;BME280;2591;48.144;15.152;2023-02-13T04:44:30;78841.88;;;-144.65;100.00
5146;BME280;2591;48.144;15.152;2023-02-13T04:46:57;78843.91;;;-144.65;100.00
5146;BME280;2591;48.144;15.152;2023-02-13T04:49:25;78837.81;;;-144.65;100.00
5146;BME280;2591;48.144;15.152;2023-02-13T04:51:53;78839.84;;;-144.65;100.00
5146;BME280;2591;48.144;15.152;2023-02-13T04:54:21;78839.84;;;-144.65;100.00
5146;BME280;2591;48.144;15.152;2023-02-13T04:56:49;78845.97;;;-144.65;100.00
5146;BME280;2591;48.144;15.152;2023-02-13T04:59:18;78854.13;;;-144.65;100.00
5146;BME280;2591;48.144;15.152;2023-02-13T05:01:46;78852.09;;;-144.65;100.00
5146;BME280;2591;48.144;15.152;2023-02-13T05:04:13;78852.09;;;-144.65;100.00
5146;BME280;2591;48.144;15.152;2023-02-13T05:06:43;78854.13;;;-144.65;100.00
5146;BME280;2591;48.144;15.152;2023-02-13T05:09:11;78852.09;;;-144.65;100.00
5146;BME280;2591;48.144;15.152;2023-02-13T05:11:38;78841.88;;;-144.65;100.00
5146;BME280;2591;48.144;15.152;2023-02-13T05:14:06;78841.88;;;-144.65;100.00
5146;BME280;2591;48.144;15.152;2023-02-13T05:16:36;78839.84;;;-144.65;100.00
5146;BME280;2591;48.144;15.152;2023-02-13T05:19:03;78833.72;;;-144.65;100.00
5146;BME280;2591;48.144;15.152;2023-02-13T05:21:31;78835.75;;;-144.65;100.00
5146;BME280;2591;48.144;15.152;2023-02-13T05:24:16;78835.75;;;-144.65;100.00
5146;BME280;2591;48.144;15.152;2023-02-13T05:26:46;78829.63;;;-144.65;100.00
5146;BME280;2591;48.144;15.152;2023-02-13T05:29:14;78823.53;;;-144.65;100.00
5146;BME280;2591;48.144;15.152;2023-02-13T05:31:50;78827.59;;;-144.65;100.00
5146;BME280;2591;48.144;15.152;2023-02-13T05:34:19;78819.44;;;-144.65;100.00
5146;BME280;2591;48.144;15.152;2023-02-13T05:36:47;78823.53;;;-144.65;100.00
5146;BME280;2591;48.144;15.152;2023-02-13T05:39:15;78819.44;;;-144.65;100.00
5146;BME280;2591;48.144;15.152;2023-02-13T05:41:44;78819.44;;;-144.65;100.00
5146;BME280;2591;48.144;15.152;2023-02-13T05:44:13;78825.56;;;-144.65;100.00
5146;BME280;2591;48.144;15.152;2023-02-13T05:46:42;78825.56;;;-144.65;100.00
5146;BME280;2591;48.144;15.152;2023-02-13T05:49:12;78823.53;;;-144.65;100.00
5146;BME280;2591;48.144;15.152;2023-02-13T05:51:41;78821.47;;;-144.65;100.00
5146;BME280;2591;48.144;15.152;2023-02-13T05:54:09;78819.44;;;-144.65;100.00
5146;BME280;2591;48.144;15.152;2023-02-13T05:56:36;78823.53;;;-144.65;100.00
5146;BME280;2591;48.144;15.152;2023-02-13T05:59:05;78827.59;;;-144.65;100.00
5146;BME280;2591;48.144;15.152;2023-02-13T06:01:33;78823.53;;;-144.65;100.00
5146;BME280;2591;48.144;15.152;2023-02-13T06:04:01;78827.59;;;-144.65;100.00
5146;BME280;2591;48.144;15.152;2023-02-13T06:06:31;78833.72;;;-144.65;100.00
5146;BME280;2591;48.144;15.152;2023-02-13T06:08:58;78827.59;;;-144.65;100.00
5146;BME280;2591;48.144;15.152;2023-02-13T06:11:26;78835.75;;;-144.65;100.00
5146;BME280;2591;48.144;15.152;2023-02-13T06:13:54;78835.75;;;-144.65;100.00
5146;BME280;2591;48.144;15.152;2023-02-13T06:16:22;78827.59;;;-144.65;100.00
5146;BME280;2591;48.144;15.152;2023-02-13T06:18:50;78833.72;;;-144.65;100.00
5146;BME280;2591;48.144;15.152;2023-02-13T06:21:17;78823.53;;;-144.65;100.00
5146;BME280;2591;48.144;15.152;2023-02-13T06:23:47;78827.59;;;-144.65;100.00
5146;BME280;2591;48.144;15.152;2023-02-13T06:26:14;78829.63;;;-144.65;100.00
5146;BME280;2591;48.144;15.152;2023-02-13T06:28:42;78823.53;;;-144.65;100.00
5146;BME280;2591;48.144;15.152;2023-02-13T06:31:10;78823.53;;;-144.65;100.00
5146;BME280;2591;48.144;15.152;2023-02-13T06:33:38;78819.44;;;-144.65;100.00
5146;BME280;2591;48.144;15.152;2023-02-13T06:36:06;78821.47;;;-144.65;100.00
5146;BME280;2591;48.144;15.152;2023-02-13T06:38:34;78825.56;;;-144.65;100.00
5146;BME280;2591;48.144;15.152;2023-02-13T06:41:03;78823.53;;;-144.65;100.00
5146;BME280;2591;48.144;15.152;2023-02-13T06:43:32;78827.59;;;-144.65;100.00
5146;BME280;2591;48.144;15.152;2023-02-13T06:46:03;78827.59;;;-144.65;100.00
5146;BME280;2591;48.144;15.152;2023-02-13T06:48:31;78833.72;;;-144.65;100.00
5146;BME280;2591;48.144;15.152;2023-02-13T06:50:59;78827.59;;;-144.65;100.00
5146;BME280;2591;48.144;15.152;2023-02-13T06:53:28;78823.53;;;-144.65;100.00
5146;BME280;2591;48.144;15.152;2023-02-13T06:55:56;78819.44;;;-144.65;100.00
5146;BME280;2591;48.144;15.152;2023-02-13T06:58:25;78823.53;;;-144.65;100.00
5146;BME280;2591;48.144;15.152;2023-02-13T07:00:53;78819.44;;;-144.65;100.00
5146;BME280;2591;48.144;15.152;2023-02-13T07:03:21;78815.34;;;-144.65;100.00
5146;BME280;2591;48.144;15.152;2023-02-13T07:05:49;78803.13;;;-144.65;100.00
5146;BME280;2591;48.144;15.152;2023-02-13T07:08:18;78811.28;;;-144.65;100.00
5146;BME280;2591;48.144;15.152;2023-02-13T07:10:46;78803.13;;;-144.65;100.00
5146;BME280;2591;48.144;15.152;2023-02-13T07:13:13;78799.03;;;-144.65;100.00
5146;BME280;2591;48.144;15.152;2023-02-13T07:15:43;78794.94;;;-144.65;100.00
5146;BME280;2591;48.144;15.152;2023-02-13T07:18:11;78794.94;;;-144.65;100.00
5146;BME280;2591;48.144;15.152;2023-02-13T07:20:39;78799.03;;;-144.65;100.00
5146;BME280;2591;48.144;15.152;2023-02-13T07:23:07;78790.88;;;-144.65;100.00
5146;BME280;2591;48.144;15.152;2023-02-13T07:25:34;78782.72;;;-144.65;100.00
5146;BME280;2591;48.144;15.152;2023-02-13T07:28:03;78776.59;;;-144.65;100.00
5146;BME280;2591;48.144;15.152;2023-02-13T07:30:32;78764.34;;;-144.65;100.00
5146;BME280;2591;48.144;15.152;2023-02-13T07:33:02;78758.22;;;-144.65;100.00
5146;BME280;2591;48.144;15.152;2023-02-13T07:35:31;78758.22;;;-144.65;100.00
5146;BME280;2591;48.144;15.152;2023-02-13T07:37:59;78750.06;;;-144.65;100.00
5146;BME280;2591;48.144;15.152;2023-02-13T07:40:27;78748.03;;;-144.65;100.00
5146;BME280;2591;48.144;15.152;2023-02-13T07:42:55;78748.03;;;-144.65;100.00
5146;BME280;2591;48.144;15.152;2023-02-13T07:45:26;78741.91;;;-144.65;100.00
5146;BME280;2591;48.144;15.152;2023-02-13T07:47:54;78741.91;;;-144.65;100.00
5146;BME280;2591;48.144;15.152;2023-02-13T07:50:24;78739.84;;;-144.65;100.00
5146;BME280;2591;48.144;15.152;2023-02-13T07:52:52;78745.97;;;-144.65;100.00
5146;BME280;2591;48.144;15.152;2023-02-13T07:55:21;78743.94;;;-144.65;100.00
5146;BME280;2591;48.144;15.152;2023-02-13T07:57:49;78741.91;;;-144.65;100.00
5146;BME280;2591;48.144;15.152;2023-02-13T08:00:18;78725.56;;;-144.65;100.00
5146;BME280;2591;48.144;15.152;2023-02-13T08:02:47;78733.75;;;-144.65;100.00
5146;BME280;2591;48.144;15.152;2023-02-13T08:05:15;78719.47;;;-144.65;100.00
5146;BME280;2591;48.144;15.152;2023-02-13T08:07:44;78717.41;;;-144.65;100.00
5146;BME280;2591;48.144;15.152;2023-02-13T08:10:13;78701.09;;;-144.65;100.00
5146;BME280;2591;48.144;15.152;2023-02-13T08:12:58;78690.91;;;-144.65;100.00
5146;BME280;2591;48.144;15.152;2023-02-13T08:15:26;78676.59;;;-144.65;100.00
5146;BME280;2591;48.144;15.152;2023-02-13T08:17:54;78664.38;;;-144.65;100.00
5146;BME280;2591;48.144;15.152;2023-02-13T08:20:22;78654.16;;;-144.65;100.00
5146;BME280;2591;48.144;15.152;2023-02-13T08:22:51;78656.22;;;-144.65;100.00
5146;BME280;2591;48.144;15.152;2023-02-13T08:25:19;78648.03;;;-144.65;100.00
5146;BME280;2591;48.144;15.152;2023-02-13T08:27:47;78641.94;;;-144.65;100.00
5146;BME280;2591;48.144;15.152;2023-02-13T08:30:15;78639.88;;;-144.65;100.00
5146;BME280;2591;48.144;15.152;2023-02-13T08:32:43;78635.81;;;-144.65;100.00
5146;BME280;2591;48.144;15.152;2023-02-13T08:35:20;78637.84;;;-144.65;100.00
5146;BME280;2591;48.144;15.152;2023-02-13T08:37:53;78629.69;;;-144.65;100.00
5146;BME280;2591;48.144;15.152;2023-02-13T08:40:21;78621.53;;;-144.65;100.00
5146;BME280;2591;48.144;15.152;2023-02-13T08:42:51;78615.41;;;-144.65;100.00
5146;BME280;2591;48.144;15.152;2023-02-13T08:45:20;78613.38;;;-144.65;100.00
5146;BME280;2591;48.144;15.152;2023-02-13T08:47:47;78613.38;;;-144.65;100.00
5146;BME280;2591;48.144;15.152;2023-02-13T08:50:16;78607.25;;;-144.65;100.00
5146;BME280;2591;48.144;15.152;2023-02-13T08:52:43;78603.16;;;-144.65;100.00
5146;BME280;2591;48.144;15.152;2023-02-13T08:55:13;78599.06;;;-144.65;100.00
5146;BME280;2591;48.144;15.152;2023-02-13T08:57:40;78595.00;;;-144.65;100.00
5146;BME280;2591;48.144;15.152;2023-02-13T09:00:09;78586.84;;;-144.65;100.00
5146;BME280;2591;48.144;15.152;2023-02-13T09:02:37;78580.72;;;-144.65;100.00
5146;BME280;2591;48.144;15.152;2023-02-13T09:05:05;78566.44;;;-144.65;100.00
5146;BME280;2591;48.144;15.152;2023-02-13T09:07:33;78564.41;;;-144.65;100.00
5146;BME280;2591;48.144;15.152;2023-02-13T09:10:01;78566.44;;;-144.65;100.00
5146;BME280;2591;48.144;15.152;2023-02-13T09:12:30;78564.41;;;-144.65;100.00
5146;BME280;2591;48.144;15.152;2023-02-13T09:14:57;78562.34;;;-144.65;100.00
5146;BME280;2591;48.144;15.152;2023-02-13T09:17:25;78578.69;;;-144.65;100.00
5146;BME280;2591;48.144;15.152;2023-02-13T09:19:53;78584.78;;;-144.65;100.00
5146;BME280;2591;48.144;15.152;2023-02-13T09:22:21;78586.84;;;-144.65;100.00
5146;BME280;2591;48.144;15.152;2023-02-13T09:24:49;78578.69;;;-144.65;100.00
5146;BME280;2591;48.144;15.152;2023-02-13T09:27:16;78582.75;;;-144.65;100.00
5146;BME280;2591;48.144;15.152;2023-02-13T09:29:46;78582.75;;;-144.65;100.00
5146;BME280;2591;48.144;15.152;2023-02-13T09:32:14;78580.72;;;-144.65;100.00
5146;BME280;2591;48.144;15.152;2023-02-13T09:34:42;78578.69;;;-144.65;100.00
5146;BME280;2591;48.144;15.152;2023-02-13T09:37:10;78578.69;;;-144.65;100.00
5146;BME280;2591;48.144;15.152;2023-02-13T09:39:38;78578.69;;;-144.65;100.00
5146;BME280;2591;48.144;15.152;2023-02-13T09:42:15;78574.59;;;-144.65;100.00
5146;BME280;2591;48.144;15.152;2023-02-13T09:44:48;78566.44;;;-144.65;100.00
5146;BME280;2591;48.144;15.152;2023-02-13T09:47:25;78576.63;;;-144.65;100.00
5146;BME280;2591;48.144;15.152;2023-02-13T09:49:58;78574.59;;;-144.65;100.00
5146;BME280;2591;48.144;15.152;2023-02-13T09:52:29;78574.59;;;-144.65;100.00
5146;BME280;2591;48.144;15.152;2023-02-13T09:54:59;78570.50;;;-144.65;100.00
5146;BME280;2591;48.144;15.152;2023-02-13T09:57:32;78562.34;;;-144.65;100.00
5146;BME280;2591;48.144;15.152;2023-02-13T10:00:06;78562.34;;;-144.65;100.00
5146;BME280;2591;48.144;15.152;2023-02-13T10:02:50;78552.16;;;-144.65;100.00
5146;BME280;2591;48.144;15.152;2023-02-13T10:05:39;78550.13;;;-144.65;100.00
5146;BME280;2591;48.144;15.152;2023-02-13T10:08:13;78548.06;;;-144.65;100.00
5146;BME280;2591;48.144;15.152;2023-02-13T10:10:49;78546.03;;;-144.65;100.00
5146;BME280;2591;48.144;15.152;2023-02-13T10:13:34;78533.78;;;-144.65;100.00
5146;BME280;2591;48.144;15.152;2023-02-13T10:16:11;78533.78;;;-144.65;100.00
5146;BME280;2591;48.144;15.152;2023-02-13T10:18:45;78521.56;;;-144.65;100.00
5146;BME280;2591;48.144;15.152;2023-02-13T10:21:18;78497.06;;;-144.65;100.00
5146;BME280;2591;48.144;15.152;2023-02-13T10:23:52;78497.06;;;-144.65;100.00
5146;BME280;2591;48.144;15.152;2023-02-13T10:26:24;78493.00;;;-144.65;100.00
5146;BME280;2591;48.144;15.152;2023-02-13T10:29:14;78501.16;;;-144.65;100.00
5146;BME280;2591;48.144;15.152;2023-02-13T10:32:07;78493.00;;;-144.65;100.00
5146;BME280;2591;48.144;15.152;2023-02-13T10:34:40;78493.00;;;-144.65;100.00
5146;BME280;2591;48.144;15.152;2023-02-13T10:37:12;78482.78;;;-144.65;100.00
5146;BME280;2591;48.144;15.152;2023-02-13T10:39:44;78493.00;;;-144.65;100.00
5146;BME280;2591;48.144;15.152;2023-02-13T10:42:19;78476.66;;;-144.65;100.00
5146;BME280;2591;48.144;15.152;2023-02-13T10:45:00;78478.69;;;-144.65;100.00
5146;BME280;2591;48.144;15.152;2023-02-13T10:47:45;78482.78;;;-144.65;100.00
5146;BME280;2591;48.144;15.152;2023-02-13T10:50:22;78476.66;;;-144.65;100.00
5146;BME280;2591;48.144;15.152;2023-02-13T10:53:03;78472.59;;;-144.65;100.00
5146;BME280;2591;48.144;15.152;2023-02-13T10:58:33;78448.09;;;-144.65;100.00
5146;BME280;2591;48.144;15.152;2023-02-13T11:01:08;78441.97;;;-144.65;100.00
5146;BME280;2591;48.144;15.152;2023-02-13T11:03:40;78435.88;;;-144.65;100.00
5146;BME280;2591;48.144;15.152;2023-02-13T11:06:13;78419.53;;;-144.65;100.00
5146;BME280;2591;48.144;15.152;2023-02-13T11:08:44;78407.28;;;-144.65;100.00
5146;BME280;2591;48.144;15.152;2023-02-13T11:11:29;78405.25;;;-144.65;100.00
5146;BME280;2591;48.144;15.152;2023-02-13T11:14:13;78386.91;;;-144.65;100.00
5146;BME280;2591;48.144;15.152;2023-02-13T11:16:52;78399.13;;;-144.65;100.00
5146;BME280;2591;48.144;15.152;2023-02-13T11:19:28;78399.13;;;-144.65;100.00
5146;BME280;2591;48.144;15.152;2023-02-13T11:22:00;78390.97;;;-144.65;100.00
5146;BME280;2591;48.144;15.152;2023-02-13T11:24:30;78378.72;;;-144.65;100.00
5146;BME280;2591;48.144;15.152;2023-02-13T11:27:00;78370.56;;;-144.65;100.00
5146;BME280;2591;48.144;15.152;2023-02-13T11:29:33;78366.50;;;-144.65;100.00
5146;BME280;2591;48.144;15.152;2023-02-13T11:32:06;78370.56;;;-144.65;100.00
5146;BME280;2591;48.144;15.152;2023-02-13T11:34:39;78358.34;;;-144.65;100.00
5146;BME280;2591;48.144;15.152;2023-02-13T11:37:15;78344.06;;;-144.65;100.00
5146;BME280;2591;48.144;15.152;2023-02-13T11:39:45;78331.81;;;-144.65;100.00
5146;BME280;2591;48.144;15.152;2023-02-13T11:42:20;78331.81;;;-144.65;100.00
5146;BME280;2591;48.144;15.152;2023-02-13T11:44:53;78344.06;;;-144.65;100.00
5146;BME280;2591;48.144;15.152;2023-02-13T11:47:33;78333.84;;;-144.65;100.00
5146;BME280;2591;48.144;15.152;2023-02-13T11:50:06;78335.91;;;-144.65;100.00
5146;BME280;2591;48.144;15.152;2023-02-13T11:52:53;78339.97;;;-144.65;100.00
5146;BME280;2591;48.144;15.152;2023-02-13T11:55:27;78333.84;;;-144.65;100.00
5146;BME280;2591;48.144;15.152;2023-02-13T11:57:58;78327.72;;;-144.65;100.00
5146;BME280;2591;48.144;15.152;2023-02-13T12:00:30;78333.84;;;-144.65;100.00
5146;BME280;2591;48.144;15.152;2023-02-13T12:03:25;78337.94;;;-144.65;100.00
5146;BME280;2591;48.144;15.152;2023-02-13T12:06:02;78346.09;;;-144.65;100.00
5146;BME280;2591;48.144;15.152;2023-02-13T12:08:32;78342.00;;;-144.65;100.00
5146;BME280;2591;48.144;15.152;2023-02-13T12:11:03;78337.94;;;-144.65;100.00
5146;BME280;2591;48.144;15.152;2023-02-13T12:13:36;78333.84;;;-144.65;100.00
5146;BME280;2591;48.144;15.152;2023-02-13T12:16:10;78333.84;;;-144.65;100.00
5146;BME280;2591;48.144;15.152;2023-02-13T12:18:42;78327.72;;;-144.65;100.00
5146;BME280;2591;48.144;15.152;2023-02-13T12:21:24;78321.63;;;-144.65;100.00
5146;BME280;2591;48.144;15.152;2023-02-13T12:24:02;78329.78;;;-144.65;100.00
5146;BME280;2591;48.144;15.152;2023-02-13T12:26:38;78317.53;;;-144.65;100.00
5146;BME280;2591;48.144;15.152;2023-02-13T12:29:26;78309.38;;;-144.65;100.00
5146;BME280;2591;48.144;15.152;2023-02-13T12:32:10;78293.06;;;-144.65;100.00
5146;BME280;2591;48.144;15.152;2023-02-13T12:35:15;78297.13;;;-144.65;100.00
5146;BME280;2591;48.144;15.152;2023-02-13T12:37:56;78288.97;;;-144.65;100.00
5146;BME280;2591;48.144;15.152;2023-02-13T12:40:47;78280.81;;;-144.65;100.00
5146;BME280;2591;48.144;15.152;2023-02-13T12:43:44;78272.66;;;-144.65;100.00
5146;BME280;2591;48.144;15.152;2023-02-13T12:46:22;78278.78;;;-144.65;100.00
5146;BME280;2591;48.144;15.152;2023-02-13T12:49:02;78276.72;;;-144.65;100.00
5146;BME280;2591;48.144;15.152;2023-02-13T12:51:42;78284.88;;;-144.65;100.00
5146;BME280;2591;48.144;15.152;2023-02-13T12:54:26;78293.06;;;-144.65;100.00
5146;BME280;2591;48.144;15.152;2023-02-13T12:57:22;78293.06;;;-144.65;100.00
5146;BME280;2591;48.144;15.152;2023-02-13T13:00:04;78286.94;;;-144.65;100.00
5146;BME280;2591;48.144;15.152;2023-02-13T13:02:54;78284.88;;;-144.65;100.00
5146;BME280;2591;48.144;15.152;2023-02-13T13:05:41;78288.97;;;-144.65;100.00
5146;BME280;2591;48.144;15.152;2023-02-13T13:08:29;78299.16;;;-144.65;100.00
5146;BME280;2591;48.144;15.152;2023-02-13T13:11:14;78305.28;;;-144.65;100.00
5146;BME280;2591;48.144;15.152;2023-02-13T13:13:55;78301.22;;;-144.65;100.00
5146;BME280;2591;48.144;15.152;2023-02-13T13:16:36;78291.00;;;-144.65;100.00
5146;BME280;2591;48.144;15.152;2023-02-13T13:19:15;78280.81;;;-144.65;100.00